createdAt,value
2018-03-29T00:02:49.604Z,93768.88
2018-03-29T00:05:53.623Z,93771.67
2018-03-29T00:08:57.655Z,93772.98
2018-03-29T00:12:00.902Z,93777.02
2018-03-29T00:15:04.232Z,93779.20
2018-03-29T00:18:08.459Z,93783.72
2018-03-29T00:21:11.722Z,93792.53
2018-03-29T00:24:15.005Z,93799.36
2018-03-29T00:27:18.281Z,93803.77
2018-03-29T00:30:21.550Z,93811.48
2018-03-29T00:33:24.804Z,93804.11
2018-03-29T00:36:28.060Z,93805.23
2018-03-29T00:39:31.363Z,93804.69
2018-03-29T00:42:34.614Z,93805.34
2018-03-29T00:45:38.661Z,93812.97
2018-03-29T00:48:41.935Z,93808.98
2018-03-29T00:51:45.985Z,93804.72
2018-03-29T00:54:49.246Z,93807.45
2018-03-29T00:57:53.252Z,93811.55
2018-03-29T01:00:57.277Z,93816.14
2018-03-29T01:04:01.400Z,93810.55
2018-03-29T01:07:05.413Z,93816.53
2018-03-29T01:10:08.780Z,93821.78
2018-03-29T01:13:12.058Z,93831.36
2018-03-29T01:16:15.325Z,93828.34
2018-03-29T01:19:18.589Z,93837.33
2018-03-29T01:22:22.606Z,93847.06
2018-03-29T01:25:26.653Z,93850.11
2018-03-29T01:28:29.931Z,93851.44
2018-03-29T01:31:34.030Z,93862.08
2018-03-29T01:34:37.310Z,93862.95
2018-03-29T01:37:40.560Z,93863.13
2018-03-29T01:40:43.814Z,93883.05
2018-03-29T01:43:47.848Z,93880.16
2018-03-29T01:46:51.897Z,93884.55
2018-03-29T01:49:55.169Z,93889.73
2018-03-29T01:52:58.436Z,93890.72
2018-03-29T01:56:02.478Z,93891.05
2018-03-29T01:59:05.758Z,93896.26
2018-03-29T02:02:09.037Z,93902.38
2018-03-29T02:05:12.309Z,93907.27
2018-03-29T02:08:15.558Z,93915.34
2018-03-29T02:11:19.581Z,93919.18
2018-03-29T02:14:22.853Z,93922.04
2018-03-29T02:17:26.109Z,93925.93
2018-03-29T02:20:29.397Z,93936.66
2018-03-29T02:23:32.663Z,93937.76
2018-03-29T02:26:36.712Z,93946.95
2018-03-29T02:29:40.002Z,93945.25
2018-03-29T02:32:44.097Z,93959.61
2018-03-29T02:35:48.142Z,93961.14
2018-03-29T02:38:52.212Z,93964.55
2018-03-29T02:41:56.229Z,93965.77
2018-03-29T02:45:00.263Z,93963.66
2018-03-29T02:48:03.539Z,93967.22
2018-03-29T02:51:07.577Z,93966.38
2018-03-29T02:54:10.861Z,93965.67
2018-03-29T02:57:14.888Z,93972.23
2018-03-29T03:00:18.167Z,93980.34
2018-03-29T03:03:22.190Z,93978.91
2018-03-29T03:06:26.266Z,93980.75
2018-03-29T03:09:29.534Z,93983.92
2018-03-29T03:12:32.799Z,93993.60
2018-03-29T03:15:36.820Z,93992.91
2018-03-29T03:18:40.108Z,93989.13
2018-03-29T03:21:44.285Z,93990.66
2018-03-29T03:24:47.601Z,93995.08
2018-03-29T03:27:50.929Z,93999.95
2018-03-29T03:30:54.949Z,94004.22
2018-03-29T03:33:58.234Z,94015.22
2018-03-29T03:37:02.365Z,94020.13
2018-03-29T03:40:05.934Z,94021.25
2018-03-29T03:43:09.280Z,94017.81
2018-03-29T03:46:12.814Z,94027.17
2018-03-29T03:49:16.159Z,94028.94
2018-03-29T03:52:20.204Z,94027.79
2018-03-29T03:55:23.490Z,94032.98
2018-03-29T03:58:27.281Z,94033.14
2018-03-29T04:01:31.302Z,94034.31
2018-03-29T04:04:34.565Z,94036.95
2018-03-29T04:07:38.897Z,94037.41
2018-03-29T04:10:42.159Z,94037.31
2018-03-29T04:13:45.549Z,94037.75
2018-03-29T04:16:48.809Z,94044.14
2018-03-29T04:19:52.088Z,94043.33
2018-03-29T04:22:55.353Z,94047.31
2018-03-29T04:25:58.632Z,94049.88
2018-03-29T04:29:01.886Z,94055.03
2018-03-29T04:32:05.913Z,94060.38
2018-03-29T04:35:09.969Z,94062.55
2018-03-29T04:38:13.220Z,94066.88
2018-03-29T04:41:17.273Z,94070.52
2018-03-29T04:44:20.525Z,94076.25
2018-03-29T04:47:24.566Z,94074.52
2018-03-29T04:50:28.644Z,94075.97
2018-03-29T04:53:31.904Z,94077.91
2018-03-29T04:56:35.217Z,94091.77
2018-03-29T04:59:38.825Z,94085.27
2018-03-29T05:02:42.084Z,94084.53
2018-03-29T05:05:45.350Z,94084.58
2018-03-29T05:08:49.370Z,94085.66
2018-03-29T05:11:53.472Z,94087.91
2018-03-29T05:14:56.752Z,94098.52
2018-03-29T05:18:00.081Z,94100.80
2018-03-29T05:21:03.381Z,94105.38
2018-03-29T05:24:06.644Z,94112.80
2018-03-29T05:27:15.401Z,94111.13
2018-03-29T05:30:19.446Z,94108.97
2018-03-29T05:33:22.702Z,94112.15
2018-03-29T05:36:26.725Z,94109.82
2018-03-29T05:39:30.908Z,94114.08
2018-03-29T05:42:34.209Z,94119.73
2018-03-29T05:45:37.489Z,94128.17
2018-03-29T05:48:40.752Z,94125.13
2018-03-29T05:51:46.089Z,94126.59
2018-03-29T05:54:50.713Z,94120.28
2018-03-29T05:57:54.737Z,94125.66
2018-03-29T06:00:58.006Z,94130.53
2018-03-29T06:04:02.313Z,94138.58
2018-03-29T06:07:05.619Z,94140.13
2018-03-29T06:10:09.742Z,94133.58
2018-03-29T06:13:13.010Z,94143.64
2018-03-29T06:16:17.082Z,94147.83
2018-03-29T06:19:20.336Z,94147.69
2018-03-29T06:22:23.962Z,94147.72
2018-03-29T06:25:27.987Z,94146.97
2018-03-29T06:28:32.111Z,94147.74
2018-03-29T06:31:36.159Z,94151.74
2018-03-29T06:34:39.517Z,94159.77
2018-03-29T06:37:42.790Z,94162.38
2018-03-29T06:40:46.049Z,94160.50
2018-03-29T06:43:49.345Z,94163.58
2018-03-29T06:46:52.605Z,94170.17
2018-03-29T06:49:56.636Z,94170.47
2018-03-29T06:52:59.916Z,94172.83
2018-03-29T06:56:04.007Z,94167.19
2018-03-29T06:59:07.305Z,94171.56
2018-03-29T07:02:10.588Z,94172.02
2018-03-29T07:05:13.869Z,94169.16
2018-03-29T07:08:17.167Z,94177.52
2018-03-29T07:11:20.434Z,94164.86
2018-03-29T07:14:23.713Z,94172.66
2018-03-29T07:17:27.745Z,94178.70
2018-03-29T07:20:30.996Z,94188.06
2018-03-29T07:23:34.332Z,94202.99
2018-03-29T07:26:38.357Z,94216.06
2018-03-29T07:29:41.616Z,94216.55
2018-03-29T07:32:45.686Z,94224.62
2018-03-29T07:35:49.011Z,94226.25
2018-03-29T07:38:52.269Z,94215.05
2018-03-29T07:41:55.543Z,94207.73
2018-03-29T07:44:59.569Z,94212.02
2018-03-29T07:48:03.123Z,94223.03
2018-03-29T07:51:06.388Z,94226.02
2018-03-29T07:54:09.649Z,94232.06
2018-03-29T07:57:13.704Z,94241.37
2018-03-29T08:00:16.976Z,94235.50
2018-03-29T08:03:21.966Z,94237.64
2018-03-29T08:06:25.240Z,94237.94
2018-03-29T08:09:29.265Z,94237.69
2018-03-29T08:12:32.701Z,94239.56
2018-03-29T08:15:36.677Z,94244.87
2018-03-29T08:18:39.937Z,94238.83
2018-03-29T08:21:43.962Z,94247.23
2018-03-29T08:24:48.045Z,94239.37
2018-03-29T08:27:52.122Z,94249.55
2018-03-29T08:30:55.455Z,94256.07
2018-03-29T08:33:58.779Z,94262.47
2018-03-29T08:37:02.972Z,94262.78
2018-03-29T08:40:06.978Z,94252.62
2018-03-29T08:43:10.249Z,94254.41
2018-03-29T08:46:13.521Z,94250.48
2018-03-29T08:49:16.821Z,94258.88
2018-03-29T08:52:20.193Z,94251.75
2018-03-29T08:55:25.521Z,94253.28
2018-03-29T08:58:28.886Z,94248.20
2018-03-29T09:01:32.400Z,94249.67
2018-03-29T09:04:35.720Z,94262.28
2018-03-29T09:07:39.225Z,94253.36
2018-03-29T09:10:43.672Z,94259.96
2018-03-29T09:13:47.800Z,94263.46
2018-03-29T09:16:51.560Z,94258.50
2018-03-29T09:19:54.917Z,94249.92
2018-03-29T09:22:58.852Z,94249.82
2018-03-29T09:26:02.158Z,94244.86
2018-03-29T09:29:05.446Z,94245.05
2018-03-29T09:32:08.729Z,94243.80
2018-03-29T09:35:12.025Z,94243.89
2018-03-29T09:38:15.293Z,94248.77
2018-03-29T09:41:19.332Z,94250.20
2018-03-29T09:44:22.669Z,94248.98
2018-03-29T09:47:25.994Z,94237.64
2018-03-29T09:50:29.253Z,94230.25
2018-03-29T09:53:32.530Z,94237.97
2018-03-29T09:56:35.797Z,94250.15
2018-03-29T09:59:39.836Z,94248.70
2018-03-29T10:02:48.559Z,94258.14
2018-03-29T10:05:53.389Z,94254.81
2018-03-29T10:08:56.686Z,94259.47
2018-03-29T10:11:59.956Z,94255.37
2018-03-29T10:15:04.041Z,94250.50
2018-03-29T10:18:07.321Z,94243.84
2018-03-29T10:21:10.625Z,94242.09
2018-03-29T10:24:13.890Z,94239.61
2018-03-29T10:27:17.182Z,94240.95
2018-03-29T10:30:21.204Z,94233.83
2018-03-29T10:33:24.482Z,94226.58
2018-03-29T10:36:28.528Z,94225.16
2018-03-29T10:39:31.839Z,94225.69
2018-03-29T10:42:35.111Z,94226.69
2018-03-29T10:45:38.372Z,94228.12
2018-03-29T10:48:41.850Z,94229.20
2018-03-29T10:51:46.050Z,94223.95
2018-03-29T10:54:49.344Z,94215.08
2018-03-29T10:57:52.626Z,94211.55
2018-03-29T11:00:56.680Z,94203.21
2018-03-29T11:03:59.970Z,94190.20
2018-03-29T11:07:03.278Z,94189.92
2018-03-29T11:10:06.544Z,94187.34
2018-03-29T11:13:09.868Z,94181.20
2018-03-29T11:16:13.918Z,94179.08
2018-03-29T11:19:18.076Z,94172.99
2018-03-29T11:22:21.348Z,94177.98
2018-03-29T11:25:25.875Z,94174.07
2018-03-29T11:28:29.906Z,94174.09
2018-03-29T11:31:33.472Z,94175.12
2018-03-29T11:34:38.283Z,94164.06
2018-03-29T11:37:41.544Z,94163.78
2018-03-29T11:40:45.192Z,94159.69
2018-03-29T11:43:48.484Z,94155.22
2018-03-29T11:46:52.002Z,94153.75
2018-03-29T11:49:55.253Z,94146.73
2018-03-29T11:52:58.884Z,94153.30
2018-03-29T11:56:02.170Z,94148.58
2018-03-29T11:59:05.459Z,94141.21
2018-03-29T12:02:08.750Z,94129.92
2018-03-29T12:05:12.025Z,94116.94
2018-03-29T12:08:15.441Z,94121.23
2018-03-29T12:11:18.740Z,94120.88
2018-03-29T12:14:22.037Z,94110.78
2018-03-29T12:17:25.304Z,94111.38
2018-03-29T12:20:29.354Z,94114.72
2018-03-29T12:23:32.640Z,94110.91
2018-03-29T12:26:35.946Z,94105.05
2018-03-29T12:29:39.267Z,94110.27
2018-03-29T12:32:42.550Z,94113.39
2018-03-29T12:35:45.832Z,94100.58
2018-03-29T12:38:49.135Z,94083.64
2018-03-29T12:41:52.412Z,94085.79
2018-03-29T12:44:56.723Z,94081.80
2018-03-29T12:48:00.777Z,94083.73
2018-03-29T12:51:05.062Z,94079.20
2018-03-29T12:54:08.309Z,94089.27
2018-03-29T12:57:29.580Z,94084.18
2018-03-29T13:00:33.634Z,94081.63
2018-03-29T13:03:36.928Z,94079.66
2018-03-29T13:06:40.213Z,94081.77
2018-03-29T13:09:43.510Z,94076.38
2018-03-29T13:12:46.808Z,94081.03
2018-03-29T13:15:50.133Z,94075.17
2018-03-29T13:18:53.444Z,94075.73
2018-03-29T13:21:56.722Z,94080.42
2018-03-29T13:25:00.005Z,94082.22
2018-03-29T13:28:03.283Z,94081.23
2018-03-29T13:31:07.603Z,94073.79
2018-03-29T13:37:29.095Z,94082.70
2018-03-29T13:40:32.394Z,94079.15
2018-03-29T13:43:35.672Z,94076.92
2018-03-29T13:46:38.968Z,94067.71
2018-03-29T13:49:42.221Z,94067.55
2018-03-29T13:52:45.488Z,94057.11
2018-03-29T13:55:48.850Z,94060.05
2018-03-29T13:58:52.680Z,94045.50
2018-03-29T14:01:55.951Z,94037.72
2018-03-29T14:04:59.980Z,94043.80
2018-03-29T14:08:03.245Z,94044.12
2018-03-29T14:11:06.506Z,94042.76
2018-03-29T14:14:10.697Z,94043.65
2018-03-29T14:17:14.086Z,94052.53
2018-03-29T14:20:17.346Z,94058.88
2018-03-29T14:23:20.625Z,94050.27
2018-03-29T14:26:23.973Z,94047.18
2018-03-29T14:29:28.200Z,94049.05
2018-03-29T14:32:31.461Z,94049.84
2018-03-29T14:35:34.762Z,94051.14
2018-03-29T14:38:38.786Z,94053.95
2018-03-29T14:41:42.816Z,94067.02
2018-03-29T14:44:46.094Z,94070.10
2018-03-29T14:47:50.144Z,94071.18
2018-03-29T14:50:53.501Z,94080.72
2018-03-29T14:53:57.633Z,94082.77
2018-03-29T14:57:01.729Z,94081.95
2018-03-29T15:00:05.763Z,94085.37
2018-03-29T15:03:09.792Z,94084.87
2018-03-29T15:06:13.078Z,94078.99
2018-03-29T15:09:17.101Z,94083.11
2018-03-29T15:12:21.421Z,94084.88
2018-03-29T15:15:25.480Z,94091.43
2018-03-29T15:18:28.732Z,94094.13
2018-03-29T15:21:32.786Z,94101.01
2018-03-29T15:24:36.049Z,94111.78
2018-03-29T15:27:39.330Z,94106.43
2018-03-29T15:30:43.378Z,94104.47
2018-03-29T15:33:46.671Z,94105.55
2018-03-29T15:36:49.956Z,94111.39
2018-03-29T15:39:53.422Z,94115.09
2018-03-29T15:42:56.684Z,94108.86
2018-03-29T15:45:59.971Z,94113.91
2018-03-29T15:49:03.230Z,94114.36
2018-03-29T15:52:07.283Z,94113.84
2018-03-29T15:55:10.558Z,94113.94
2018-03-29T15:58:13.833Z,94120.47
2018-03-29T16:01:17.098Z,94118.26
2018-03-29T16:04:20.357Z,94123.58
2018-03-29T16:07:23.653Z,94117.61
2018-03-29T16:10:27.684Z,94121.16
2018-03-29T16:13:30.993Z,94128.64
2018-03-29T16:16:34.317Z,94121.79
2018-03-29T16:19:37.580Z,94114.55
2018-03-29T16:22:43.056Z,94109.28
2018-03-29T16:25:46.772Z,94111.42
2018-03-29T16:28:50.062Z,94118.28
2018-03-29T16:31:54.147Z,94122.34
2018-03-29T16:34:57.694Z,94127.46
2018-03-29T16:38:01.039Z,94127.53
2018-03-29T16:41:04.460Z,94136.84
2018-03-29T16:44:07.731Z,94126.59
2018-03-29T16:47:11.891Z,94125.93
2018-03-29T16:50:15.221Z,94127.16
2018-03-29T16:53:18.493Z,94125.37
2018-03-29T16:56:21.801Z,94109.45
2018-03-29T16:59:25.118Z,94104.13
2018-03-29T17:02:28.364Z,94109.20
2018-03-29T17:05:31.637Z,94112.31
2018-03-29T17:08:35.665Z,94137.71
2018-03-29T17:11:38.930Z,94151.49
2018-03-29T17:14:42.180Z,94147.30
2018-03-29T17:17:45.506Z,94145.32
2018-03-29T17:20:48.899Z,94146.94
2018-03-29T17:23:52.196Z,94169.86
2018-03-29T17:26:55.696Z,94183.97
2018-03-29T17:29:58.964Z,94179.21
2018-03-29T17:33:02.235Z,94185.91
2018-03-29T17:36:06.260Z,94184.13
2018-03-29T17:39:09.570Z,94182.42
2018-03-29T17:42:12.850Z,94174.16
2018-03-29T17:45:16.870Z,94186.25
2018-03-29T17:48:20.237Z,94188.19
2018-03-29T17:51:23.581Z,94203.38
2018-03-29T17:54:26.855Z,94216.63
2018-03-29T17:57:30.887Z,94211.82
2018-03-29T18:00:34.186Z,94218.05
2018-03-29T18:03:37.446Z,94216.31
2018-03-29T18:06:41.519Z,94225.56
2018-03-29T18:09:44.800Z,94232.90
2018-03-29T18:12:48.064Z,94243.36
2018-03-29T18:15:52.169Z,94251.19
2018-03-29T18:18:55.442Z,94253.44
2018-03-29T18:21:59.481Z,94251.81
2018-03-29T18:25:02.785Z,94251.66
2018-03-29T18:28:06.869Z,94258.55
2018-03-29T18:31:10.126Z,94262.73
2018-03-29T18:34:13.380Z,94259.39
2018-03-29T18:37:16.650Z,94261.44
2018-03-29T18:40:19.971Z,94260.97
2018-03-29T18:43:23.254Z,94260.13
2018-03-29T18:46:26.572Z,94268.73
2018-03-29T18:49:30.637Z,94271.17
2018-03-29T18:52:33.899Z,94260.56
2018-03-29T18:55:37.954Z,94270.47
2018-03-29T18:58:41.281Z,94283.83
2018-03-29T19:01:44.552Z,94292.31
2018-03-29T19:04:47.846Z,94296.92
2018-03-29T19:07:51.121Z,94297.07
2018-03-29T19:10:55.156Z,94298.23
2018-03-29T19:13:58.462Z,94299.94
2018-03-29T19:17:01.736Z,94299.47
2018-03-29T19:20:06.160Z,94299.64
2018-03-29T19:23:10.182Z,94307.91
2018-03-29T19:26:13.438Z,94299.11
2018-03-29T19:29:16.705Z,94299.97
2018-03-29T19:32:19.991Z,94305.61
2018-03-29T19:35:23.281Z,94316.16
2018-03-29T19:38:26.544Z,94307.10
2018-03-29T19:41:30.659Z,94304.86
2018-03-29T19:44:34.685Z,94306.95
2018-03-29T19:47:38.724Z,94314.99
2018-03-29T19:50:41.996Z,94310.34
2018-03-29T19:53:46.013Z,94308.02
2018-03-29T19:56:50.036Z,94314.53
2018-03-29T19:59:53.365Z,94309.35
2018-03-29T20:02:56.659Z,94307.41
2018-03-29T20:05:59.932Z,94302.44
2018-03-29T20:09:03.181Z,94296.80
2018-03-29T20:12:06.465Z,94289.84
2018-03-29T20:15:09.753Z,94296.71
2018-03-29T20:18:13.013Z,94293.24
2018-03-29T20:21:16.273Z,94293.29
2018-03-29T20:24:19.637Z,94295.45
2018-03-29T20:27:23.073Z,94298.14
2018-03-29T20:30:26.452Z,94292.23
2018-03-29T20:33:29.751Z,94284.17
2018-03-29T20:36:33.064Z,94278.20
2018-03-29T20:39:36.369Z,94278.71
2018-03-29T20:42:39.689Z,94280.41
2018-03-29T20:45:43.791Z,94278.17
2018-03-29T20:48:47.122Z,94278.38
2018-03-29T20:51:51.601Z,94271.81
2018-03-29T20:54:55.045Z,94272.46
2018-03-29T20:57:58.925Z,94268.03
2018-03-29T21:01:02.249Z,94270.38
2018-03-29T21:04:06.313Z,94278.88
2018-03-29T21:07:09.603Z,94276.94
2018-03-29T21:10:14.145Z,94279.38
2018-03-29T21:13:18.636Z,94279.70
2018-03-29T21:16:23.053Z,94282.30
2018-03-29T21:19:26.800Z,94282.57
2018-03-29T21:22:30.380Z,94281.45
2018-03-29T21:25:33.669Z,94283.00
2018-03-29T21:28:39.007Z,94282.73
2018-03-29T21:31:42.538Z,94274.52
2018-03-29T21:34:46.794Z,94278.30
2018-03-29T21:37:51.255Z,94283.75
2018-03-29T21:40:55.556Z,94277.92
2018-03-29T21:44:00.712Z,94280.72
2018-03-29T21:47:05.212Z,94281.20
2018-03-29T21:50:52.208Z,94284.20
2018-03-29T21:53:57.872Z,94278.98
2018-03-29T21:57:01.912Z,94279.86
2018-03-29T22:00:05.838Z,94283.67
2018-03-29T22:03:09.138Z,94275.66
2018-03-29T22:06:12.395Z,94281.44
2018-03-29T22:09:15.667Z,94276.87
2018-03-29T22:12:19.045Z,94276.27
2018-03-29T22:15:22.379Z,94270.73
2018-03-29T22:18:25.661Z,94264.47
2018-03-29T22:21:28.931Z,94262.91
2018-03-29T22:24:32.192Z,94266.53
2018-03-29T22:27:36.263Z,94262.19
2018-03-29T22:30:39.584Z,94265.88
2018-03-29T22:33:43.686Z,94264.39
2018-03-29T22:36:46.933Z,94259.39
2018-03-29T22:39:51.563Z,94262.22
2018-03-29T22:42:55.948Z,94260.73
2018-03-29T22:45:59.298Z,94258.77
2018-03-29T22:49:06.224Z,94257.64
2018-03-29T22:52:10.091Z,94260.80
2018-03-29T22:55:13.698Z,94263.62
2018-03-29T22:58:18.300Z,94281.62
2018-03-29T23:01:21.838Z,94275.75
2018-03-29T23:04:25.176Z,94270.63
2018-03-29T23:07:28.417Z,94261.52
2018-03-29T23:10:32.552Z,94257.47
2018-03-29T23:13:35.805Z,94266.72
2018-03-29T23:16:39.154Z,94268.52
2018-03-29T23:19:42.784Z,94268.61
2018-03-29T23:22:46.076Z,94258.98
2018-03-29T23:25:49.333Z,94256.94
2018-03-29T23:28:53.360Z,94266.00
2018-03-29T23:31:56.917Z,94268.06
2018-03-29T23:35:00.196Z,94273.73
2018-03-29T23:38:03.762Z,94276.94
2018-03-29T23:41:07.026Z,94280.44
2018-03-29T23:44:11.378Z,94285.39
2018-03-29T23:47:15.428Z,94284.75
2018-03-29T23:50:18.730Z,94284.61
2018-03-29T23:53:21.998Z,94277.61
2018-03-29T23:56:26.056Z,94278.03
2018-03-29T23:59:30.340Z,94286.88
